sensor_id;sensor_type;location;lat;lon;timestamp;P1;durP1;ratioP1;P2;durP2;ratioP2
13083;SDS011;6608;48.790;9.198;2023-07-28T00:01:44;149.90;;;64.87;;
13083;SDS011;6608;48.790;9.198;2023-07-28T00:04:11;149.63;;;66.00;;
13083;SDS011;6608;48.790;9.198;2023-07-28T00:06:38;148.60;;;65.07;;
13083;SDS011;6608;48.790;9.198;2023-07-28T00:09:04;152.70;;;64.77;;
13083;SDS011;6608;48.790;9.198;2023-07-28T00:11:31;149.20;;;65.17;;
13083;SDS011;6608;48.790;9.198;2023-07-28T00:13:57;154.00;;;65.10;;
13083;SDS011;6608;48.790;9.198;2023-07-28T00:16:23;151.73;;;66.17;;
13083;SDS011;6608;48.790;9.198;2023-07-28T00:18:50;150.53;;;65.20;;
13083;SDS011;6608;48.790;9.198;2023-07-28T00:21:18;153.03;;;66.57;;
13083;SDS011;6608;48.790;9.198;2023-07-28T00:23:44;153.90;;;64.93;;
13083;SDS011;6608;48.790;9.198;2023-07-28T00:26:11;159.73;;;65.90;;
13083;SDS011;6608;48.790;9.198;2023-07-28T00:28:37;166.63;;;65.97;;
13083;SDS011;6608;48.790;9.198;2023-07-28T00:31:03;159.93;;;66.00;;
13083;SDS011;6608;48.790;9.198;2023-07-28T00:33:30;169.33;;;66.97;;
13083;SDS011;6608;48.790;9.198;2023-07-28T00:35:56;149.60;;;64.13;;
13083;SDS011;6608;48.790;9.198;2023-07-28T00:38:24;147.97;;;64.33;;
13083;SDS011;6608;48.790;9.198;2023-07-28T00:40:51;146.23;;;64.10;;
13083;SDS011;6608;48.790;9.198;2023-07-28T00:43:17;145.53;;;63.63;;
13083;SDS011;6608;48.790;9.198;2023-07-28T00:45:43;146.27;;;64.47;;
13083;SDS011;6608;48.790;9.198;2023-07-28T00:48:10;145.00;;;63.63;;
13083;SDS011;6608;48.790;9.198;2023-07-28T00:50:37;143.50;;;63.87;;
13083;SDS011;6608;48.790;9.198;2023-07-28T00:53:04;144.23;;;64.17;;
13083;SDS011;6608;48.790;9.198;2023-07-28T00:55:31;144.60;;;64.40;;
13083;SDS011;6608;48.790;9.198;2023-07-28T00:57:58;141.60;;;63.60;;
13083;SDS011;6608;48.790;9.198;2023-07-28T01:00:25;141.13;;;63.43;;
13083;SDS011;6608;48.790;9.198;2023-07-28T01:02:51;142.57;;;63.83;;
13083;SDS011;6608;48.790;9.198;2023-07-28T01:05:17;142.20;;;63.67;;
13083;SDS011;6608;48.790;9.198;2023-07-28T01:07:46;142.13;;;63.43;;
13083;SDS011;6608;48.790;9.198;2023-07-28T01:10:14;141.43;;;63.73;;
13083;SDS011;6608;48.790;9.198;2023-07-28T01:12:44;141.13;;;63.47;;
13083;SDS011;6608;48.790;9.198;2023-07-28T01:15:11;140.80;;;63.40;;
13083;SDS011;6608;48.790;9.198;2023-07-28T01:17:39;142.00;;;63.60;;
13083;SDS011;6608;48.790;9.198;2023-07-28T01:20:06;141.83;;;64.07;;
13083;SDS011;6608;48.790;9.198;2023-07-28T01:22:40;141.77;;;63.47;;
13083;SDS011;6608;48.790;9.198;2023-07-28T01:25:14;142.37;;;63.80;;
13083;SDS011;6608;48.790;9.198;2023-07-28T01:27:45;142.30;;;64.37;;
13083;SDS011;6608;48.790;9.198;2023-07-28T01:30:11;141.70;;;63.27;;
13083;SDS011;6608;48.790;9.198;2023-07-28T01:32:38;141.03;;;63.77;;
13083;SDS011;6608;48.790;9.198;2023-07-28T01:35:05;142.77;;;63.73;;
13083;SDS011;6608;48.790;9.198;2023-07-28T01:37:31;140.37;;;63.17;;
13083;SDS011;6608;48.790;9.198;2023-07-28T01:39:58;146.97;;;67.10;;
13083;SDS011;6608;48.790;9.198;2023-07-28T01:42:24;143.30;;;63.47;;
13083;SDS011;6608;48.790;9.198;2023-07-28T01:44:52;141.13;;;63.97;;
13083;SDS011;6608;48.790;9.198;2023-07-28T01:47:19;140.63;;;63.10;;
13083;SDS011;6608;48.790;9.198;2023-07-28T01:49:45;145.33;;;64.00;;
13083;SDS011;6608;48.790;9.198;2023-07-28T01:52:12;143.57;;;63.17;;
13083;SDS011;6608;48.790;9.198;2023-07-28T01:54:38;141.23;;;62.97;;
13083;SDS011;6608;48.790;9.198;2023-07-28T01:57:05;141.77;;;64.73;;
13083;SDS011;6608;48.790;9.198;2023-07-28T01:59:31;141.60;;;64.00;;
13083;SDS011;6608;48.790;9.198;2023-07-28T02:01:59;140.07;;;63.63;;
13083;SDS011;6608;48.790;9.198;2023-07-28T02:04:25;141.83;;;64.10;;
13083;SDS011;6608;48.790;9.198;2023-07-28T02:06:52;143.07;;;64.60;;
13083;SDS011;6608;48.790;9.198;2023-07-28T02:09:18;141.67;;;64.27;;
13083;SDS011;6608;48.790;9.198;2023-07-28T02:11:45;143.53;;;64.73;;
13083;SDS011;6608;48.790;9.198;2023-07-28T02:14:11;141.37;;;63.67;;
13083;SDS011;6608;48.790;9.198;2023-07-28T02:16:37;140.53;;;63.13;;
13083;SDS011;6608;48.790;9.198;2023-07-28T02:19:05;141.33;;;63.53;;
13083;SDS011;6608;48.790;9.198;2023-07-28T02:21:32;140.97;;;63.07;;
13083;SDS011;6608;48.790;9.198;2023-07-28T02:23:59;141.53;;;63.67;;
13083;SDS011;6608;48.790;9.198;2023-07-28T02:26:25;141.90;;;64.27;;
13083;SDS011;6608;48.790;9.198;2023-07-28T02:28:52;141.97;;;64.40;;
13083;SDS011;6608;48.790;9.198;2023-07-28T02:31:18;145.20;;;64.63;;
13083;SDS011;6608;48.790;9.198;2023-07-28T02:33:45;143.17;;;63.80;;
13083;SDS011;6608;48.790;9.198;2023-07-28T02:36:13;141.13;;;62.23;;
13083;SDS011;6608;48.790;9.198;2023-07-28T02:38:39;141.17;;;63.33;;
13083;SDS011;6608;48.790;9.198;2023-07-28T02:41:05;142.80;;;64.23;;
13083;SDS011;6608;48.790;9.198;2023-07-28T02:43:32;144.53;;;64.93;;
13083;SDS011;6608;48.790;9.198;2023-07-28T02:45:59;143.33;;;64.47;;
13083;SDS011;6608;48.790;9.198;2023-07-28T02:48:26;144.47;;;65.40;;
13083;SDS011;6608;48.790;9.198;2023-07-28T02:50:52;142.13;;;64.43;;
13083;SDS011;6608;48.790;9.198;2023-07-28T02:53:20;142.70;;;64.40;;
13083;SDS011;6608;48.790;9.198;2023-07-28T02:55:47;144.23;;;64.60;;
13083;SDS011;6608;48.790;9.198;2023-07-28T02:58:14;145.23;;;64.83;;
13083;SDS011;6608;48.790;9.198;2023-07-28T03:00:41;144.70;;;65.47;;
13083;SDS011;6608;48.790;9.198;2023-07-28T03:03:07;143.13;;;64.33;;
13083;SDS011;6608;48.790;9.198;2023-07-28T03:05:35;143.47;;;64.50;;
13083;SDS011;6608;48.790;9.198;2023-07-28T03:08:02;143.47;;;64.70;;
13083;SDS011;6608;48.790;9.198;2023-07-28T03:10:30;143.87;;;64.63;;
13083;SDS011;6608;48.790;9.198;2023-07-28T03:12:56;145.73;;;64.77;;
13083;SDS011;6608;48.790;9.198;2023-07-28T03:15:22;145.30;;;64.90;;
13083;SDS011;6608;48.790;9.198;2023-07-28T03:17:49;143.50;;;64.40;;
13083;SDS011;6608;48.790;9.198;2023-07-28T03:20:16;141.53;;;64.10;;
13083;SDS011;6608;48.790;9.198;2023-07-28T03:22:42;143.10;;;64.57;;
13083;SDS011;6608;48.790;9.198;2023-07-28T03:25:09;148.07;;;66.80;;
13083;SDS011;6608;48.790;9.198;2023-07-28T03:27:36;142.43;;;64.23;;
13083;SDS011;6608;48.790;9.198;2023-07-28T03:30:03;143.13;;;64.07;;
13083;SDS011;6608;48.790;9.198;2023-07-28T03:32:31;144.17;;;64.27;;
13083;SDS011;6608;48.790;9.198;2023-07-28T03:34:58;143.77;;;64.80;;
13083;SDS011;6608;48.790;9.198;2023-07-28T03:37:24;144.93;;;65.27;;
13083;SDS011;6608;48.790;9.198;2023-07-28T03:39:51;143.63;;;65.23;;
13083;SDS011;6608;48.790;9.198;2023-07-28T03:42:17;146.20;;;66.60;;
13083;SDS011;6608;48.790;9.198;2023-07-28T03:44:45;142.93;;;64.40;;
13083;SDS011;6608;48.790;9.198;2023-07-28T03:47:11;144.27;;;64.47;;
13083;SDS011;6608;48.790;9.198;2023-07-28T03:49:38;144.13;;;64.60;;
13083;SDS011;6608;48.790;9.198;2023-07-28T03:52:04;144.63;;;63.73;;
13083;SDS011;6608;48.790;9.198;2023-07-28T03:54:31;144.67;;;64.67;;
13083;SDS011;6608;48.790;9.198;2023-07-28T03:56:57;147.33;;;63.77;;
13083;SDS011;6608;48.790;9.198;2023-07-28T03:59:24;147.00;;;65.73;;
13083;SDS011;6608;48.790;9.198;2023-07-28T04:01:52;142.77;;;63.93;;
13083;SDS011;6608;48.790;9.198;2023-07-28T04:04:18;143.53;;;63.97;;
13083;SDS011;6608;48.790;9.198;2023-07-28T04:06:45;143.80;;;63.77;;
13083;SDS011;6608;48.790;9.198;2023-07-28T04:09:12;145.77;;;65.07;;
13083;SDS011;6608;48.790;9.198;2023-07-28T04:11:39;142.83;;;63.87;;
13083;SDS011;6608;48.790;9.198;2023-07-28T04:14:05;142.27;;;63.17;;
13083;SDS011;6608;48.790;9.198;2023-07-28T04:16:32;143.53;;;63.50;;
13083;SDS011;6608;48.790;9.198;2023-07-28T04:19:00;145.00;;;63.50;;
13083;SDS011;6608;48.790;9.198;2023-07-28T04:21:26;143.83;;;63.73;;
13083;SDS011;6608;48.790;9.198;2023-07-28T04:23:53;145.60;;;64.00;;
13083;SDS011;6608;48.790;9.198;2023-07-28T04:26:19;143.93;;;64.10;;
13083;SDS011;6608;48.790;9.198;2023-07-28T04:28:46;144.13;;;63.50;;
13083;SDS011;6608;48.790;9.198;2023-07-28T04:31:12;144.03;;;64.20;;
13083;SDS011;6608;48.790;9.198;2023-07-28T04:33:40;145.43;;;63.50;;
13083;SDS011;6608;48.790;9.198;2023-07-28T04:36:08;144.57;;;65.13;;
13083;SDS011;6608;48.790;9.198;2023-07-28T04:38:35;146.47;;;64.23;;
13083;SDS011;6608;48.790;9.198;2023-07-28T04:41:01;143.77;;;64.40;;
13083;SDS011;6608;48.790;9.198;2023-07-28T04:43:28;145.47;;;64.20;;
13083;SDS011;6608;48.790;9.198;2023-07-28T04:45:54;143.67;;;64.10;;
13083;SDS011;6608;48.790;9.198;2023-07-28T04:48:21;146.00;;;64.93;;
13083;SDS011;6608;48.790;9.198;2023-07-28T04:50:47;143.83;;;64.33;;
13083;SDS011;6608;48.790;9.198;2023-07-28T04:53:15;152.47;;;65.50;;
13083;SDS011;6608;48.790;9.198;2023-07-28T04:55:41;148.70;;;64.70;;
13083;SDS011;6608;48.790;9.198;2023-07-28T04:58:08;144.53;;;64.67;;
13083;SDS011;6608;48.790;9.198;2023-07-28T05:00:34;146.07;;;65.80;;
13083;SDS011;6608;48.790;9.198;2023-07-28T05:03:01;146.13;;;66.13;;
13083;SDS011;6608;48.790;9.198;2023-07-28T05:05:28;146.97;;;65.77;;
13083;SDS011;6608;48.790;9.198;2023-07-28T05:07:55;147.57;;;66.30;;
13083;SDS011;6608;48.790;9.198;2023-07-28T05:10:22;147.50;;;64.90;;
13083;SDS011;6608;48.790;9.198;2023-07-28T05:12:49;151.13;;;66.30;;
13083;SDS011;6608;48.790;9.198;2023-07-28T05:15:15;149.10;;;65.97;;
13083;SDS011;6608;48.790;9.198;2023-07-28T05:17:42;150.63;;;66.63;;
13083;SDS011;6608;48.790;9.198;2023-07-28T05:20:09;150.93;;;66.57;;
13083;SDS011;6608;48.790;9.198;2023-07-28T05:22:35;146.47;;;65.57;;
13083;SDS011;6608;48.790;9.198;2023-07-28T05:25:02;150.53;;;66.30;;
13083;SDS011;6608;48.790;9.198;2023-07-28T05:27:30;153.27;;;66.47;;
13083;SDS011;6608;48.790;9.198;2023-07-28T05:29:56;146.60;;;65.77;;
13083;SDS011;6608;48.790;9.198;2023-07-28T05:32:23;153.03;;;67.40;;
13083;SDS011;6608;48.790;9.198;2023-07-28T05:34:49;147.50;;;66.80;;
13083;SDS011;6608;48.790;9.198;2023-07-28T05:37:16;151.27;;;66.93;;
13083;SDS011;6608;48.790;9.198;2023-07-28T05:39:42;149.93;;;66.07;;
13083;SDS011;6608;48.790;9.198;2023-07-28T05:42:09;151.47;;;68.33;;
13083;SDS011;6608;48.790;9.198;2023-07-28T05:44:37;149.30;;;66.83;;
13083;SDS011;6608;48.790;9.198;2023-07-28T05:47:03;146.83;;;66.40;;
13083;SDS011;6608;48.790;9.198;2023-07-28T05:49:30;150.30;;;67.53;;
13083;SDS011;6608;48.790;9.198;2023-07-28T05:51:57;148.13;;;66.27;;
13083;SDS011;6608;48.790;9.198;2023-07-28T05:54:23;149.50;;;66.80;;
13083;SDS011;6608;48.790;9.198;2023-07-28T05:56:49;147.07;;;65.97;;
13083;SDS011;6608;48.790;9.198;2023-07-28T05:59:16;151.60;;;68.60;;
13083;SDS011;6608;48.790;9.198;2023-07-28T06:01:44;151.80;;;67.07;;
13083;SDS011;6608;48.790;9.198;2023-07-28T06:04:10;152.57;;;67.13;;
13083;SDS011;6608;48.790;9.198;2023-07-28T06:06:37;149.57;;;67.97;;
13083;SDS011;6608;48.790;9.198;2023-07-28T06:09:03;151.43;;;66.67;;
13083;SDS011;6608;48.790;9.198;2023-07-28T06:11:29;152.73;;;66.37;;
13083;SDS011;6608;48.790;9.198;2023-07-28T06:13:56;149.67;;;66.93;;
13083;SDS011;6608;48.790;9.198;2023-07-28T06:16:23;152.23;;;67.93;;
13083;SDS011;6608;48.790;9.198;2023-07-28T06:18:51;152.43;;;67.50;;
13083;SDS011;6608;48.790;9.198;2023-07-28T06:21:17;154.67;;;68.30;;
13083;SDS011;6608;48.790;9.198;2023-07-28T06:23:43;147.77;;;66.53;;
13083;SDS011;6608;48.790;9.198;2023-07-28T06:26:10;152.63;;;66.83;;
13083;SDS011;6608;48.790;9.198;2023-07-28T06:28:37;153.23;;;67.60;;
13083;SDS011;6608;48.790;9.198;2023-07-28T06:31:03;147.73;;;66.83;;
13083;SDS011;6608;48.790;9.198;2023-07-28T06:33:30;154.17;;;68.37;;
13083;SDS011;6608;48.790;9.198;2023-07-28T06:35:58;149.30;;;66.40;;
13083;SDS011;6608;48.790;9.198;2023-07-28T06:38:25;151.13;;;68.57;;
13083;SDS011;6608;48.790;9.198;2023-07-28T06:40:52;153.17;;;66.97;;
13083;SDS011;6608;48.790;9.198;2023-07-28T06:43:18;152.53;;;66.40;;
13083;SDS011;6608;48.790;9.198;2023-07-28T06:45:45;158.87;;;66.83;;
13083;SDS011;6608;48.790;9.198;2023-07-28T06:48:11;149.63;;;67.07;;
13083;SDS011;6608;48.790;9.198;2023-07-28T06:50:37;150.83;;;67.97;;
13083;SDS011;6608;48.790;9.198;2023-07-28T06:53:05;153.60;;;66.97;;
13083;SDS011;6608;48.790;9.198;2023-07-28T06:55:32;153.87;;;68.93;;
13083;SDS011;6608;48.790;9.198;2023-07-28T06:57:58;155.50;;;66.93;;
13083;SDS011;6608;48.790;9.198;2023-07-28T07:00:25;152.37;;;67.97;;
13083;SDS011;6608;48.790;9.198;2023-07-28T07:02:51;154.63;;;67.77;;
13083;SDS011;6608;48.790;9.198;2023-07-28T07:05:18;158.50;;;68.43;;
13083;SDS011;6608;48.790;9.198;2023-07-28T07:07:44;151.13;;;67.40;;
13083;SDS011;6608;48.790;9.198;2023-07-28T07:10:12;153.23;;;67.73;;
13083;SDS011;6608;48.790;9.198;2023-07-28T07:12:39;155.83;;;67.73;;
13083;SDS011;6608;48.790;9.198;2023-07-28T07:15:05;156.60;;;67.83;;
13083;SDS011;6608;48.790;9.198;2023-07-28T07:17:32;156.93;;;67.60;;
13083;SDS011;6608;48.790;9.198;2023-07-28T07:19:59;162.43;;;67.73;;
13083;SDS011;6608;48.790;9.198;2023-07-28T07:22:25;164.37;;;68.23;;
13083;SDS011;6608;48.790;9.198;2023-07-28T07:24:53;152.50;;;66.07;;
13083;SDS011;6608;48.790;9.198;2023-07-28T07:27:22;160.60;;;67.43;;
13083;SDS011;6608;48.790;9.198;2023-07-28T07:29:49;166.80;;;69.13;;
13083;SDS011;6608;48.790;9.198;2023-07-28T07:32:16;164.00;;;68.43;;
13083;SDS011;6608;48.790;9.198;2023-07-28T07:34:42;162.93;;;66.80;;
13083;SDS011;6608;48.790;9.198;2023-07-28T07:37:09;165.53;;;67.77;;
13083;SDS011;6608;48.790;9.198;2023-07-28T07:39:35;169.93;;;68.47;;
13083;SDS011;6608;48.790;9.198;2023-07-28T07:42:02;177.53;;;69.50;;
13083;SDS011;6608;48.790;9.198;2023-07-28T07:44:31;167.60;;;68.17;;
13083;SDS011;6608;48.790;9.198;2023-07-28T07:47:00;152.77;;;66.53;;
13083;SDS011;6608;48.790;9.198;2023-07-28T07:49:26;154.13;;;66.97;;
13083;SDS011;6608;48.790;9.198;2023-07-28T07:51:53;152.27;;;67.10;;
13083;SDS011;6608;48.790;9.198;2023-07-28T07:54:19;152.53;;;68.03;;
13083;SDS011;6608;48.790;9.198;2023-07-28T07:56:45;149.63;;;66.33;;
13083;SDS011;6608;48.790;9.198;2023-07-28T07:59:12;149.80;;;66.37;;
13083;SDS011;6608;48.790;9.198;2023-07-28T08:01:41;146.63;;;66.03;;
13083;SDS011;6608;48.790;9.198;2023-07-28T08:04:07;149.77;;;66.67;;
13083;SDS011;6608;48.790;9.198;2023-07-28T08:06:34;149.80;;;66.40;;
13083;SDS011;6608;48.790;9.198;2023-07-28T08:09:00;147.90;;;66.60;;
13083;SDS011;6608;48.790;9.198;2023-07-28T08:11:27;150.23;;;66.00;;
13083;SDS011;6608;48.790;9.198;2023-07-28T08:13:54;147.67;;;67.07;;
13083;SDS011;6608;48.790;9.198;2023-07-28T08:16:20;150.10;;;68.00;;
13083;SDS011;6608;48.790;9.198;2023-07-28T08:18:48;148.30;;;65.73;;
13083;SDS011;6608;48.790;9.198;2023-07-28T08:21:15;149.83;;;66.40;;
13083;SDS011;6608;48.790;9.198;2023-07-28T08:23:41;148.27;;;67.27;;
13083;SDS011;6608;48.790;9.198;2023-07-28T08:26:07;148.23;;;66.93;;
13083;SDS011;6608;48.790;9.198;2023-07-28T08:28:34;150.83;;;66.83;;
13083;SDS011;6608;48.790;9.198;2023-07-28T08:31:00;150.63;;;67.17;;
13083;SDS011;6608;48.790;9.198;2023-07-28T08:33:28;153.93;;;68.77;;
13083;SDS011;6608;48.790;9.198;2023-07-28T08:35:56;149.37;;;68.47;;
13083;SDS011;6608;48.790;9.198;2023-07-28T08:38:23;148.67;;;67.70;;
13083;SDS011;6608;48.790;9.198;2023-07-28T08:40:49;151.33;;;68.33;;
13083;SDS011;6608;48.790;9.198;2023-07-28T08:43:16;148.43;;;67.57;;
13083;SDS011;6608;48.790;9.198;2023-07-28T08:45:42;150.83;;;68.63;;
13083;SDS011;6608;48.790;9.198;2023-07-28T08:48:09;147.63;;;66.70;;
13083;SDS011;6608;48.790;9.198;2023-07-28T08:50:35;150.03;;;68.80;;
13083;SDS011;6608;48.790;9.198;2023-07-28T08:53:03;158.47;;;73.93;;
13083;SDS011;6608;48.790;9.198;2023-07-28T08:55:30;152.87;;;70.10;;
13083;SDS011;6608;48.790;9.198;2023-07-28T08:58:12;150.10;;;67.67;;
13083;SDS011;6608;48.790;9.198;2023-07-28T09:00:40;154.90;;;70.13;;
13083;SDS011;6608;48.790;9.198;2023-07-28T09:03:08;149.87;;;68.70;;
13083;SDS011;6608;48.790;9.198;2023-07-28T09:05:34;153.43;;;70.10;;
13083;SDS011;6608;48.790;9.198;2023-07-28T09:08:01;162.30;;;76.57;;
13083;SDS011;6608;48.790;9.198;2023-07-28T09:10:32;150.03;;;67.80;;
13083;SDS011;6608;48.790;9.198;2023-07-28T09:13:08;149.27;;;66.97;;
13083;SDS011;6608;48.790;9.198;2023-07-28T09:15:35;149.90;;;66.50;;
13083;SDS011;6608;48.790;9.198;2023-07-28T09:18:01;151.33;;;67.80;;
13083;SDS011;6608;48.790;9.198;2023-07-28T09:20:33;150.13;;;68.00;;
13083;SDS011;6608;48.790;9.198;2023-07-28T09:22:59;152.87;;;68.00;;
13083;SDS011;6608;48.790;9.198;2023-07-28T09:25:27;150.57;;;68.40;;
13083;SDS011;6608;48.790;9.198;2023-07-28T09:27:55;151.13;;;69.00;;
13083;SDS011;6608;48.790;9.198;2023-07-28T09:30:22;164.00;;;73.60;;
13083;SDS011;6608;48.790;9.198;2023-07-28T09:32:49;151.20;;;68.13;;
13083;SDS011;6608;48.790;9.198;2023-07-28T09:35:16;160.87;;;70.93;;
13083;SDS011;6608;48.790;9.198;2023-07-28T09:37:43;149.57;;;68.33;;
13083;SDS011;6608;48.790;9.198;2023-07-28T09:40:11;151.63;;;68.10;;
13083;SDS011;6608;48.790;9.198;2023-07-28T09:42:38;150.07;;;69.17;;
13083;SDS011;6608;48.790;9.198;2023-07-28T09:45:06;151.63;;;68.33;;
13083;SDS011;6608;48.790;9.198;2023-07-28T09:47:34;149.30;;;68.37;;
13083;SDS011;6608;48.790;9.198;2023-07-28T09:50:02;151.27;;;68.27;;
13083;SDS011;6608;48.790;9.198;2023-07-28T09:52:30;149.40;;;68.30;;
13083;SDS011;6608;48.790;9.198;2023-07-28T09:54:57;149.67;;;67.60;;
13083;SDS011;6608;48.790;9.198;2023-07-28T09:57:25;148.03;;;67.30;;
13083;SDS011;6608;48.790;9.198;2023-07-28T09:59:53;148.23;;;67.33;;
13083;SDS011;6608;48.790;9.198;2023-07-28T10:02:22;150.87;;;68.47;;
13083;SDS011;6608;48.790;9.198;2023-07-28T10:04:49;149.07;;;66.80;;
13083;SDS011;6608;48.790;9.198;2023-07-28T10:07:16;149.43;;;67.77;;
13083;SDS011;6608;48.790;9.198;2023-07-28T10:09:42;151.33;;;67.77;;
13083;SDS011;6608;48.790;9.198;2023-07-28T10:12:17;147.17;;;66.63;;
13083;SDS011;6608;48.790;9.198;2023-07-28T10:14:43;150.90;;;69.30;;
13083;SDS011;6608;48.790;9.198;2023-07-28T10:17:15;148.60;;;67.80;;
13083;SDS011;6608;48.790;9.198;2023-07-28T10:19:43;148.67;;;67.77;;
13083;SDS011;6608;48.790;9.198;2023-07-28T10:22:10;150.63;;;69.03;;
13083;SDS011;6608;48.790;9.198;2023-07-28T10:24:52;147.00;;;66.90;;
13083;SDS011;6608;48.790;9.198;2023-07-28T10:27:28;149.87;;;66.20;;
13083;SDS011;6608;48.790;9.198;2023-07-28T10:29:56;148.37;;;67.80;;
13083;SDS011;6608;48.790;9.198;2023-07-28T10:32:25;149.93;;;67.63;;
13083;SDS011;6608;48.790;9.198;2023-07-28T10:34:59;147.57;;;67.23;;
13083;SDS011;6608;48.790;9.198;2023-07-28T10:37:27;151.43;;;66.93;;
13083;SDS011;6608;48.790;9.198;2023-07-28T10:42:35;149.73;;;65.83;;
13083;SDS011;6608;48.790;9.198;2023-07-28T10:45:01;147.87;;;66.73;;
13083;SDS011;6608;48.790;9.198;2023-07-28T10:47:28;150.80;;;68.10;;
13083;SDS011;6608;48.790;9.198;2023-07-28T10:49:54;147.67;;;66.90;;
13083;SDS011;6608;48.790;9.198;2023-07-28T10:52:25;148.60;;;66.47;;
13083;SDS011;6608;48.790;9.198;2023-07-28T10:54:53;150.00;;;66.83;;
13083;SDS011;6608;48.790;9.198;2023-07-28T10:57:19;148.87;;;66.50;;
13083;SDS011;6608;48.790;9.198;2023-07-28T10:59:46;149.07;;;66.37;;
13083;SDS011;6608;48.790;9.198;2023-07-28T11:02:14;148.47;;;67.67;;
13083;SDS011;6608;48.790;9.198;2023-07-28T11:04:45;146.40;;;66.40;;
13083;SDS011;6608;48.790;9.198;2023-07-28T11:07:11;150.83;;;69.13;;
13083;SDS011;6608;48.790;9.198;2023-07-28T11:09:39;148.13;;;66.43;;
13083;SDS011;6608;48.790;9.198;2023-07-28T11:12:08;150.73;;;68.53;;
13083;SDS011;6608;48.790;9.198;2023-07-28T11:14:35;149.63;;;68.27;;
13083;SDS011;6608;48.790;9.198;2023-07-28T11:17:01;149.13;;;66.83;;
13083;SDS011;6608;48.790;9.198;2023-07-28T11:19:28;152.17;;;67.97;;
13083;SDS011;6608;48.790;9.198;2023-07-28T11:21:54;146.43;;;65.53;;
13083;SDS011;6608;48.790;9.198;2023-07-28T11:24:22;151.47;;;67.43;;
13083;SDS011;6608;48.790;9.198;2023-07-28T11:26:50;148.10;;;66.83;;
13083;SDS011;6608;48.790;9.198;2023-07-28T11:29:18;151.30;;;68.53;;
13083;SDS011;6608;48.790;9.198;2023-07-28T11:31:45;149.17;;;66.83;;
13083;SDS011;6608;48.790;9.198;2023-07-28T11:34:14;150.30;;;67.27;;
13083;SDS011;6608;48.790;9.198;2023-07-28T11:36:40;149.57;;;68.23;;
13083;SDS011;6608;48.790;9.198;2023-07-28T11:39:07;147.80;;;67.07;;
13083;SDS011;6608;48.790;9.198;2023-07-28T11:41:35;148.63;;;67.57;;
13083;SDS011;6608;48.790;9.198;2023-07-28T11:44:03;165.17;;;72.33;;
13083;SDS011;6608;48.790;9.198;2023-07-28T11:46:33;155.10;;;71.90;;
13083;SDS011;6608;48.790;9.198;2023-07-28T11:49:06;150.90;;;68.50;;
13083;SDS011;6608;48.790;9.198;2023-07-28T11:51:36;149.87;;;67.37;;
13083;SDS011;6608;48.790;9.198;2023-07-28T11:54:03;149.00;;;66.93;;
13083;SDS011;6608;48.790;9.198;2023-07-28T11:56:30;150.57;;;67.87;;
13083;SDS011;6608;48.790;9.198;2023-07-28T11:58:56;152.07;;;69.40;;
13083;SDS011;6608;48.790;9.198;2023-07-28T12:01:24;152.87;;;69.13;;
13083;SDS011;6608;48.790;9.198;2023-07-28T12:03:50;149.57;;;67.50;;
13083;SDS011;6608;48.790;9.198;2023-07-28T12:06:17;149.60;;;67.83;;
13083;SDS011;6608;48.790;9.198;2023-07-28T12:08:43;149.10;;;66.77;;
13083;SDS011;6608;48.790;9.198;2023-07-28T12:11:11;153.37;;;67.60;;
13083;SDS011;6608;48.790;9.198;2023-07-28T12:13:48;148.93;;;66.70;;
13083;SDS011;6608;48.790;9.198;2023-07-28T12:18:59;149.77;;;67.37;;
13083;SDS011;6608;48.790;9.198;2023-07-28T12:21:25;151.33;;;68.63;;
13083;SDS011;6608;48.790;9.198;2023-07-28T12:23:51;150.63;;;67.97;;
13083;SDS011;6608;48.790;9.198;2023-07-28T12:26:18;159.30;;;74.27;;
13083;SDS011;6608;48.790;9.198;2023-07-28T12:28:44;155.73;;;70.67;;
13083;SDS011;6608;48.790;9.198;2023-07-28T12:31:11;154.43;;;69.63;;
13083;SDS011;6608;48.790;9.198;2023-07-28T12:33:37;151.40;;;67.90;;
13083;SDS011;6608;48.790;9.198;2023-07-28T12:36:05;152.70;;;67.83;;
13083;SDS011;6608;48.790;9.198;2023-07-28T12:38:32;151.70;;;67.77;;
13083;SDS011;6608;48.790;9.198;2023-07-28T12:40:58;150.23;;;67.47;;
13083;SDS011;6608;48.790;9.198;2023-07-28T12:43:25;150.50;;;67.07;;
13083;SDS011;6608;48.790;9.198;2023-07-28T12:45:54;149.70;;;66.90;;
13083;SDS011;6608;48.790;9.198;2023-07-28T12:48:20;151.83;;;68.57;;
13083;SDS011;6608;48.790;9.198;2023-07-28T12:50:46;150.20;;;67.60;;
13083;SDS011;6608;48.790;9.198;2023-07-28T12:53:15;153.70;;;68.43;;
13083;SDS011;6608;48.790;9.198;2023-07-28T12:55:42;151.57;;;68.93;;
13083;SDS011;6608;48.790;9.198;2023-07-28T12:58:08;149.60;;;66.93;;
13083;SDS011;6608;48.790;9.198;2023-07-28T13:00:35;150.50;;;67.17;;
13083;SDS011;6608;48.790;9.198;2023-07-28T13:03:01;154.20;;;68.77;;
13083;SDS011;6608;48.790;9.198;2023-07-28T13:05:28;151.77;;;67.67;;
13083;SDS011;6608;48.790;9.198;2023-07-28T13:07:54;152.93;;;67.73;;
13083;SDS011;6608;48.790;9.198;2023-07-28T13:10:21;151.37;;;66.97;;
13083;SDS011;6608;48.790;9.198;2023-07-28T13:12:48;151.40;;;66.67;;
13083;SDS011;6608;48.790;9.198;2023-07-28T13:15:14;153.77;;;67.93;;
13083;SDS011;6608;48.790;9.198;2023-07-28T13:17:40;154.57;;;68.97;;
13083;SDS011;6608;48.790;9.198;2023-07-28T13:20:07;155.90;;;68.97;;
13083;SDS011;6608;48.790;9.198;2023-07-28T13:22:34;155.03;;;68.47;;
13083;SDS011;6608;48.790;9.198;2023-07-28T13:25:00;153.70;;;67.50;;
13083;SDS011;6608;48.790;9.198;2023-07-28T13:27:29;154.07;;;67.67;;
13083;SDS011;6608;48.790;9.198;2023-07-28T13:29:56;153.67;;;67.27;;
13083;SDS011;6608;48.790;9.198;2023-07-28T13:32:23;158.70;;;70.23;;
13083;SDS011;6608;48.790;9.198;2023-07-28T13:34:51;157.30;;;67.87;;
13083;SDS011;6608;48.790;9.198;2023-07-28T13:37:18;158.23;;;68.67;;
13083;SDS011;6608;48.790;9.198;2023-07-28T13:39:44;158.97;;;68.77;;
13083;SDS011;6608;48.790;9.198;2023-07-28T13:42:11;163.40;;;70.37;;
13083;SDS011;6608;48.790;9.198;2023-07-28T13:44:42;165.00;;;68.13;;
13083;SDS011;6608;48.790;9.198;2023-07-28T13:47:08;169.63;;;68.90;;
13083;SDS011;6608;48.790;9.198;2023-07-28T13:49:34;171.00;;;69.73;;
13083;SDS011;6608;48.790;9.198;2023-07-28T13:52:01;184.67;;;71.13;;
13083;SDS011;6608;48.790;9.198;2023-07-28T13:54:28;180.57;;;71.63;;
13083;SDS011;6608;48.790;9.198;2023-07-28T13:56:54;162.10;;;69.77;;
13083;SDS011;6608;48.790;9.198;2023-07-28T13:59:21;156.90;;;68.57;;
13083;SDS011;6608;48.790;9.198;2023-07-28T14:01:49;159.90;;;68.37;;
13083;SDS011;6608;48.790;9.198;2023-07-28T14:04:16;161.87;;;68.33;;
13083;SDS011;6608;48.790;9.198;2023-07-28T14:06:42;157.70;;;70.33;;
13083;SDS011;6608;48.790;9.198;2023-07-28T14:09:09;157.53;;;68.27;;
13083;SDS011;6608;48.790;9.198;2023-07-28T14:11:35;156.30;;;69.57;;
13083;SDS011;6608;48.790;9.198;2023-07-28T14:14:02;155.90;;;68.03;;
13083;SDS011;6608;48.790;9.198;2023-07-28T14:16:28;153.47;;;69.07;;
13083;SDS011;6608;48.790;9.198;2023-07-28T14:18:56;154.83;;;68.07;;
13083;SDS011;6608;48.790;9.198;2023-07-28T14:21:23;153.20;;;67.33;;
13083;SDS011;6608;48.790;9.198;2023-07-28T14:23:49;155.10;;;68.00;;
13083;SDS011;6608;48.790;9.198;2023-07-28T14:26:15;155.73;;;69.27;;